Terminal Aerodrome Forecast
Issued by NWS

Home | Current Version | Previous Version | Text Only | Print | Product List | Glossary On
Versions: 1 2 3 4 5 6 7 8 9 10 11 12 13 14 15 16 17 18 19 20 21 22 23 24 25 26 27 28 29 30 31 32 33 34 35 36
000
FTUS44 KFWD 272201 AAB
TAFGKY
TAF AMD
KGKY 272201Z 2722/2818 08011KT P6SM OVC030
     FM272300 06007KT P6SM VCTS SCT015 BKN050CB
      TEMPO 2723/2802 5SM -TSRA BKN025CB
     FM280400 01014G24KT P6SM OVC012
      TEMPO 2809/2812 BKN009=

USA.gov is the U.S. government's official web portal to all federal, state and local government web resources and services.